Terminal Aerodrome Forecast
Issued by NWS Charleston, WV

Current Version | Previous Version | Text Only | Print | Product List | Glossary Off
Versions: 1 2 3 4 5 6 7 8 9 10 11 12 13 14 15 16 17 18 19 20 21 22 23 24 25

739
FTUS41 KRLX 022338
TAFEKN
TAF
KEKN 022338Z 0300/0324 28008KT 5SM -SHRASN OVC015
     FM030400 28009KT P6SM OVC025
      TEMPO 0304/0306 5SM -SHSN BR=

USA.gov is the U.S. government's official web portal to all federal, state and local government web resources and services.